Flight Track Log - Related Links

Times and Time Zones

All times are in EDT time to prevent confusion due to time zone crossing. See the FDX1732 flight status page for this flight to view local times or setup timezone preferences in your user account.

Time Position Orientation Groundspeed Altitude Reporting Facility
EDT Latitude Longitude Course Direction KTS MPH feet Rate Location/Type
Fri 08:12:50 AM 29.9706 -95.3533 178° South 155 178 900  Level Houston Center
Fri 08:13:08 AM 29.9558 -95.3528 272° West 165 190 2,400 2,541 Climbing Houston Center
Fri 08:14:15 AM 29.9581 -95.4222 284° West 259 298 4,500 2,800 Climbing Houston Center
Fri 08:15:23 AM 29.9786 -95.5142 281° West 270 311 8,700 3,609 Climbing Houston Center
Fri 08:16:23 AM 29.9944 -95.6106 281° West 286 329 12,200 4,089 Climbing Houston Center
Fri 08:18:00 AM 30.0293 -95.8147 281° West 415 478 19,400 4,583 Climbing FlightAware ADS-B
Fri 08:18:30 AM 30.0402 -95.8801 281° West 415 478 21,900 4,737 Climbing FlightAware ADS-B
Fri 08:18:38 AM 30.0428 -95.8962 281° West 400 460 22,400 2,200 Climbing FlightAware ADS-B
Fri 08:19:00 AM 30.0509 -95.9455 281° West 432 497 23,000 1,200 Climbing FlightAware ADS-B
Fri 08:19:08 AM 30.0540 -95.9647 280° West 442 509 23,000 800 Level FlightAware ADS-B
Fri 08:19:30 AM 30.0620 -96.0150 281° West 444 511 23,400 2,063 Climbing FlightAware ADS-B
Fri 08:19:40 AM 30.0658 -96.0367 281° West 434 499 24,100 3,484 Climbing FlightAware ADS-B
Fri 08:20:01 AM 30.0739 -96.0846 280° West 437 503 25,200 3,097 Climbing FlightAware ADS-B
Fri 08:20:11 AM 30.0776 -96.1077 280° West 440 506 25,700 2,800 Climbing FlightAware ADS-B
Fri 08:20:31 AM 30.0849 -96.1546 280° West 454 522 26,600 2,710 Climbing FlightAware ADS-B
Fri 08:20:42 AM 30.0888 -96.1808 280° West 461 531 27,100 3,000 Climbing FlightAware ADS-B
Fri 08:21:01 AM 30.0957 -96.2262 280° West 445 512 28,100 3,600 Climbing FlightAware ADS-B
Fri 08:21:12 AM 30.0998 -96.2535 280° West 449 517 28,900 3,400 Climbing FlightAware ADS-B
Fri 08:21:31 AM 30.1065 -96.2981 280° West 447 514 29,800 2,129 Climbing FlightAware ADS-B
Fri 08:21:43 AM 30.1106 -96.3252 280° West 447 514 30,000 387 Climbing FlightAware ADS-B
Fri 08:22:02 AM 30.1171 -96.3684 280° West 430 495 30,000  Level FlightAware ADS-B
Fri 08:22:14 AM 30.1216 -96.3974 280° West 449 517 30,000  Level FlightAware ADS-B
Fri 08:22:32 AM 30.1276 -96.4380 280° West 440 506 30,000  Level FlightAware ADS-B
Fri 08:22:44 AM 30.1321 -96.4670 280° West 445 512 30,000  Level FlightAware ADS-B
Fri 08:23:02 AM 30.1388 -96.5097 280° West 458 527 30,000  Level FlightAware ADS-B
Fri 08:23:16 AM 30.1436 -96.5410 280° West 439 505 30,000  Level FlightAware ADS-B
Fri 08:23:32 AM 30.1492 -96.5791 280° West 440 506 30,000  Level FlightAware ADS-B
Fri 08:23:47 AM 30.1544 -96.6124 280° West 427 491 30,000  Level FlightAware ADS-B
Fri 08:24:03 AM 30.1602 -96.6507 280° West 450 518 30,000  Level FlightAware ADS-B
Fri 08:24:23 AM 30.1671 -96.6970 280° West 442 509 30,000  Level FlightAware ADS-B
Fri 08:24:33 AM 30.1707 -96.7202 280° West 441 507 30,000  Level FlightAware ADS-B
Fri 08:24:53 AM 30.1776 -96.7666 280° West 449 517 30,000  Level FlightAware ADS-B
Fri 08:25:04 AM 30.1810 -96.7896 280° West 424 488 30,000  Level FlightAware ADS-B
Fri 08:25:24 AM 30.1880 -96.8368 280° West 420 483 30,000  Level FlightAware ADS-B
Fri 08:25:34 AM 30.1916 -96.8610 280° West 453 521 30,000  Level FlightAware ADS-B
Fri 08:25:55 AM 30.1982 -96.9047 280° West 388 447 30,000  Level FlightAware ADS-B
Fri 08:26:05 AM 30.2021 -96.9313 280° West 430 495 30,000  Level FlightAware ADS-B
Fri 08:26:25 AM 30.2092 -96.9787 280° West 458 527 30,000  Level FlightAware ADS-B
Fri 08:26:36 AM 30.2128 -97.0031 279° West 442 509 30,000  Level FlightAware ADS-B
Fri 08:26:56 AM 30.2191 -97.0470 280° West 420 483 30,000  Level FlightAware ADS-B
Fri 08:27:08 AM 30.2236 -97.0769 280° West 443 510 30,000  Level FlightAware ADS-B
Fri 08:27:27 AM 30.2298 -97.1195 280° West 424 488 30,000  Level FlightAware ADS-B
Fri 08:27:38 AM 30.2339 -97.1469 280° West 443 510 30,000  Level FlightAware ADS-B
Fri 08:27:57 AM 30.2401 -97.1894 280° West 435 501 30,000  Level FlightAware ADS-B
Fri 08:28:09 AM 30.2442 -97.2168 280° West 430 495 30,000  Level FlightAware ADS-B
Fri 08:28:27 AM 30.2502 -97.2577 279° West 418 481 30,000  Level FlightAware ADS-B
Fri 08:28:44 AM 30.2558 -97.2965 280° West 415 478 30,000  Level FlightAware ADS-B
Fri 08:28:58 AM 30.2603 -97.3272 280° West 434 499 30,000  Level FlightAware ADS-B
Fri 08:29:15 AM 30.2663 -97.3670 279° West 419 482 30,000  Level FlightAware ADS-B
Fri 08:29:28 AM 30.2704 -97.3967 279° West 427 491 30,000  Level FlightAware ADS-B
Fri 08:29:46 AM 30.2763 -97.4377 280° West 435 501 30,000  Level FlightAware ADS-B
Fri 08:29:58 AM 30.2804 -97.4652 280° West 432 497 30,000  Level FlightAware ADS-B
Fri 08:30:19 AM 30.2872 -97.5121 279° West 435 501 30,000  Level FlightAware ADS-B
Fri 08:30:28 AM 30.2905 -97.5351 280° West 443 510 30,000  Level FlightAware ADS-B
Fri 08:30:49 AM 30.2975 -97.5836 279° West 443 510 30,000  Level FlightAware ADS-B
Fri 08:30:58 AM 30.3005 -97.6046 279° West 440 506 30,000  Level FlightAware ADS-B
Fri 08:31:23 AM 30.3083 -97.6602 280° West 446 513 30,000  Level FlightAware ADS-B
Fri 08:31:29 AM 30.3104 -97.6741 279° West 424 488 30,000  Level FlightAware ADS-B
Fri 08:31:55 AM 30.3192 -97.7366 280° West 442 509 30,000  Level FlightAware ADS-B
Fri 08:31:59 AM 30.3204 -97.7449 279° West 457 526 30,000  Level FlightAware ADS-B
Fri 08:32:29 AM 30.3303 -97.8143 279° West 441 507 30,000  Level FlightAware ADS-B
Fri 08:32:59 AM 30.3403 -97.8849 280° West 440 506 30,000  Level FlightAware ADS-B
Fri 08:33:01 AM 30.3408 -97.8883 279° West 441 507 30,000  Level FlightAware ADS-B
Fri 08:33:29 AM 30.3499 -97.9536 279° West 438 504 30,000  Level FlightAware ADS-B
Fri 08:33:45 AM 30.3547 -97.9878 279° West 426 490 30,000  Level FlightAware ADS-B
Fri 08:34:00 AM 30.3595 -98.0217 279° West 419 482 30,000  Level FlightAware ADS-B
Fri 08:34:30 AM 30.3691 -98.0909 279° West 436 502 30,000  Level FlightAware ADS-B
Fri 08:34:41 AM 30.3722 -98.1148 279° West 430 495 30,000  Level FlightAware ADS-B
Fri 08:35:00 AM 30.3784 -98.1589 279° West 423 487 30,000  Level FlightAware ADS-B
Fri 08:35:11 AM 30.3819 -98.1839 279° West 427 491 30,000  Level FlightAware ADS-B
Fri 08:35:30 AM 30.3880 -98.2274 279° West 425 489 30,000  Level FlightAware ADS-B
Fri 08:35:49 AM 30.3940 -98.2713 279° West 440 506 30,000  Level FlightAware ADS-B
Fri 08:36:00 AM 30.3975 -98.2969 279° West 431 496 30,000  Level FlightAware ADS-B
Fri 08:36:30 AM 30.4071 -98.3678 279° West 439 505 30,000  Level FlightAware ADS-B
Fri 08:36:57 AM 30.4158 -98.4296 278° West 445 512 30,000  Level FlightAware ADS-B
Fri 08:37:01 AM 30.4168 -98.4377 279° West 431 496 30,000  Level FlightAware ADS-B
Fri 08:37:31 AM 30.4266 -98.5089 279° West 442 509 30,000  Level FlightAware ADS-B
Fri 08:38:01 AM 30.4361 -98.5798 279° West 452 520 30,000  Level FlightAware ADS-B
Fri 08:38:31 AM 30.4453 -98.6488 279° West 434 499 30,000  Level FlightAware ADS-B
Fri 08:39:02 AM 30.4552 -98.7202 279° West 448 516 30,000  Level FlightAware ADS-B
Fri 08:39:33 AM 30.4644 -98.7903 279° West 434 499 30,000  Level FlightAware ADS-B
Fri 08:40:03 AM 30.4737 -98.8588 279° West 432 497 30,000  Level FlightAware ADS-B
Fri 08:40:33 AM 30.4830 -98.9279 279° West 437 503 30,000  Level FlightAware ADS-B
Fri 08:41:03 AM 30.4924 -98.9988 279° West 440 506 30,000  Level FlightAware ADS-B
Fri 08:41:34 AM 30.5016 -99.0704 279° West 442 509 30,000  Level FlightAware ADS-B
Fri 08:42:04 AM 30.5108 -99.1408 279° West 447 514 30,000  Level FlightAware ADS-B
Fri 08:42:34 AM 30.5200 -99.2110 279° West 446 513 30,000  Level FlightAware ADS-B
Fri 08:43:04 AM 30.5293 -99.2819 279° West 437 503 30,000  Level FlightAware ADS-B
Fri 08:43:36 AM 30.5375 -99.3434 278° West 407 468 30,000  Level FlightAware ADS-B
Fri 08:44:06 AM 30.5480 -99.4254 278° West 451 519 30,000  Level FlightAware ADS-B
Fri 08:44:36 AM 30.5569 -99.4949 278° West 435 501 30,000  Level FlightAware ADS-B
Fri 08:45:07 AM 30.5657 -99.5648 278° West 435 501 30,000  Level FlightAware ADS-B
Fri 08:45:38 AM 30.5750 -99.6386 278° West 428 493 30,000  Level FlightAware ADS-B
Fri 08:46:09 AM 30.5842 -99.7114 278° West 426 490 30,000  Level FlightAware ADS-B
Fri 08:46:40 AM 30.5935 -99.7842 278° West 441 507 30,000  Level FlightAware ADS-B
Fri 08:47:11 AM 30.6026 -99.8566 278° West 463 533 30,000  Level FlightAware ADS-B
Fri 08:47:42 AM 30.6117 -99.9302 278° West 452 520 30,000  Level FlightAware ADS-B
Fri 08:48:12 AM 30.6204 -100.0010 272° West 446 513 30,000  Level FlightAware ADS-B
Fri 08:48:43 AM 30.6229 -100.0720 264° West 443 510 30,000  Level FlightAware ADS-B
Fri 08:49:13 AM 30.6165 -100.1410 261° West 427 491 30,000  Level FlightAware ADS-B
Fri 08:49:44 AM 30.6070 -100.2140 262° West 436 502 30,000  Level FlightAware ADS-B
Fri 08:50:15 AM 30.5976 -100.2870 262° West 452 520 30,000  Level FlightAware ADS-B
Fri 08:50:45 AM 30.5882 -100.3600 262° West 447 514 30,000  Level FlightAware ADS-B
Fri 08:51:15 AM 30.5789 -100.4330 261° West 475 547 30,000  Level FlightAware ADS-B
Fri 08:51:46 AM 30.5691 -100.5070 266° West 452 520 30,000  Level FlightAware ADS-B
Fri 08:52:17 AM 30.5641 -100.5810 271° West 467 537 30,000  Level FlightAware ADS-B
Fri 08:52:47 AM 30.5648 -100.6510 271° West 414 476 30,000  Level FlightAware ADS-B
Fri 08:53:18 AM 30.5654 -100.7230 275° West 438 504 30,000  Level FlightAware ADS-B
Fri 08:53:48 AM 30.5706 -100.7940 281° West 433 498 30,000  Level FlightAware ADS-B
Fri 08:54:18 AM 30.5817 -100.8630 281° West 445 512 30,000  Level FlightAware ADS-B
Fri 08:54:48 AM 30.5928 -100.9300 283° West 400 460 30,000  Level FlightAware ADS-B
Fri 08:55:21 AM 30.6071 -101.0040 286° West 389 448 30,000  Level FlightAware ADS-B
Fri 08:55:52 AM 30.6247 -101.0750 286° West 434 499 30,000  Level FlightAware ADS-B
Fri 08:56:23 AM 30.6424 -101.1460 286° West 465 535 30,000  Level FlightAware ADS-B
Fri 08:56:53 AM 30.6586 -101.2110 287° West 413 475 30,000 -100 Level FlightAware ADS-B
Fri 08:57:23 AM 30.6742 -101.2689 285° West 435 501 29,900 -67 Descending Houston Center
Fri 08:58:23 AM 30.7042 -101.3994 287° West 429 494 29,900 50 Level Houston Center
Fri 08:59:23 AM 30.7383 -101.5331 285° West 429 494 30,000 50 Climbing Houston Center
Fri 09:00:23 AM 30.7681 -101.6661 285° West 429 494 30,000  Level Houston Center
Fri 09:01:23 AM 30.7997 -101.7994 286° West 429 494 30,000  Level Houston Center
Fri 09:03:45 AM 30.8789 -102.1139 285° West 429 494 30,000  Level Albuquerque Center
Fri 09:04:45 AM 30.9100 -102.2522 286° West 434 499 30,000  Level Albuquerque Center
Fri 09:05:45 AM 30.9425 -102.3858 285° West 434 499 30,000  Level Albuquerque Center
Fri 09:06:45 AM 30.9706 -102.5075 286° West 434 499 30,000  Level Albuquerque Center
Fri 09:07:45 AM 31.0031 -102.6436 284° West 434 499 30,000 -50 Level Albuquerque Center
Fri 09:08:45 AM 31.0333 -102.7825 286° West 434 499 29,900  Descending Albuquerque Center
Fri 09:09:45 AM 31.0656 -102.9164 285° West 429 494 30,000 50 Climbing Albuquerque Center
Fri 09:10:45 AM 31.0953 -103.0506 283° West 434 499 30,000  Level Albuquerque Center
Fri 09:11:45 AM 31.1233 -103.1894 281° West 439 505 30,000  Level Albuquerque Center
Fri 09:12:45 AM 31.1467 -103.3289 281° West 439 505 30,000 -50 Level Albuquerque Center
Fri 09:13:45 AM 31.1700 -103.4636 280° West 439 505 29,900  Descending Albuquerque Center
Fri 09:14:45 AM 31.1908 -103.5986 280° West 439 505 30,000 50 Climbing Albuquerque Center
Fri 09:15:45 AM 31.2117 -103.7358 282° West 439 505 30,000  Level Albuquerque Center
Fri 09:16:45 AM 31.2392 -103.8828 281° West 434 499 30,000  Level Albuquerque Center
Fri 09:17:45 AM 31.2617 -104.0178 281° West 427 491 30,000  Level Albuquerque Center
Fri 09:18:45 AM 31.2839 -104.1503 280° West 427 491 30,000  Level Albuquerque Center
Fri 09:19:45 AM 31.3042 -104.2881 280° West 427 491 30,000  Level Albuquerque Center
Fri 09:20:45 AM 31.3244 -104.4256 282° West 427 491 30,000  Level Albuquerque Center
Fri 09:21:45 AM 31.3486 -104.5633 279° West 427 491 30,000 -50 Level Albuquerque Center
Fri 09:22:45 AM 31.3683 -104.7058 281° West 432 497 29,900  Descending Albuquerque Center
Fri 09:23:45 AM 31.3903 -104.8439 279° West 432 497 30,000 50 Climbing Albuquerque Center
Fri 09:24:45 AM 31.4097 -104.9842 280° West 437 503 30,000 -300 Level Albuquerque Center
Fri 09:25:45 AM 31.4311 -105.1222 276° West 437 503 29,400 -1,400 Descending Albuquerque Center
Fri 09:26:45 AM 31.4417 -105.2411 261° West 432 497 27,200 -2,000 Descending Albuquerque Center
Fri 09:27:45 AM 31.4250 -105.3653 270° West 405 466 25,400 -2,500 Descending Albuquerque Center
Fri 09:28:45 AM 31.4247 -105.4772 282° West 378 435 22,200 -3,273 Descending Albuquerque Center
Fri 09:29:24 AM 31.4383 -105.5547 284° West 330 380 20,000 -2,340 Descending Albuquerque Center
Fri 09:30:25 AM 31.4586 -105.6539 285° West 318 366 18,300 -1,983 Descending Albuquerque Center
Fri 09:31:19 AM 31.4786 -105.7436 286° West 303 349 16,200 -2,243 Descending Albuquerque Center
Fri 09:32:20 AM 31.5006 -105.8308 288° West 289 333 14,000 -2,262 Descending Albuquerque Center
Fri 09:33:21 AM 31.5247 -105.9206 286° West 283 326 11,600 -2,173 Descending Albuquerque Center
Fri 09:34:27 AM 31.5486 -106.0197 286° West 281 323 9,400 -1,370 Descending Albuquerque Center
Fri 09:35:28 AM 31.5706 -106.1072 287° West 279 321 8,700 -991 Descending Albuquerque Center
Fri 09:36:22 AM 31.5922 -106.1897 286° West 277 319 7,500 -626 Descending Albuquerque Center
Fri 09:37:23 AM 31.6117 -106.2675 281° West 248 285 7,500  Level Albuquerque Center
Fri 09:38:18 AM 31.6228 -106.3353 285° West 239 275 7,500  Level Albuquerque Center
Fri 09:39:18 AM 31.6378 -106.4011 306° West 204 235 7,500  Level Albuquerque Center
Fri 09:40:25 AM 31.6736 -106.4592 332° Northwest 194 223 7,500 -378 Level Albuquerque Center
Fri 09:41:25 AM 31.7156 -106.4856 21° North 158 182 6,700 -843 Descending Albuquerque Center
Fri 09:42:26 AM 31.7489 -106.4706 48° Northeast 134 154 5,800 -934 Descending Albuquerque Center
Fri 09:43:27 AM 31.7717 -106.4411 51° Northeast 121 139 4,800 -843 Descending Albuquerque Center
Fri 09:44:27 AM 31.7922 -106.4117 51° Northeast 117 135 4,100 -700 Descending Albuquerque Center

Login

Don't have an account? Register now (free) for customized features, flight alerts, and more!